FW8688 Weather Reports


Display with metric or nautical units.
time (UTC)temp
F
wind
direction
speed
MPH
gust
MPH
rain 1hr
in
rain 24hr
in
rain mn
in
humidity
%
barometer
mb
20211025222803 66 158 11.0 20.0 0.00 0.00 0.00 36 1007.3
20211025222306 66 160 7.0 11.0 0.00 0.00 0.00 38 1007.3
20211025221806 66 147 6.0 11.0 0.00 0.00 0.00 38 1007.6
20211025221316 65 147 6.0 9.0 0.00 0.00 0.00 39 1007.5
20211025220818 65 132 6.0 9.0 0.00 0.00 0.00 40 1007.6
20211025220322 64 144 5.0 9.0 0.00 0.00 0.00 43 1007.8
20211025215846 64 127 5.0 9.0 0.00 0.00 0.00 43 1007.8
20211025214843 64 128 4.0 6.0 0.00 0.00 0.00 45 1007.6
20211025214315 64 114 3.0 9.0 0.00 0.00 0.00 44 1007.7
20211025213818 64 135 6.0 9.0 0.00 0.00 0.00 43 1007.5
20211025213327 64 131 5.0 8.0 0.00 0.00 0.00 43 1007.7
20211025212333 64 134 5.0 9.0 0.00 0.00 0.00 43 1007.7
20211025210338 65 131 5.0 10.0 0.00 0.00 0.00 43 1007.8
20211025205317 65 140 7.0 10.0 0.00 0.00 0.00 42 1007.9
20211025204339 65 132 7.0 10.0 0.00 0.00 0.00 42 1008.1
20211025203806 66 141 7.0 14.0 0.00 0.00 0.00 41 1008.1
20211025202841 66 140 7.0 12.0 0.00 0.00 0.00 41 1008.4
20211025202343 66 148 9.0 12.0 0.00 0.00 0.00 40 1008.7
20211025200814 65 141 9.0 13.0 0.00 0.00 0.00 42 1008.8
20211025195841 65 147 8.0 12.0 0.00 0.00 0.00 43 1009.0
20211025194307 63 120 7.0 11.0 0.00 0.00 0.00 46 1009.1
20211025193312 64 108 8.0 12.0 0.00 0.00 0.00 45 1009.2
20211025192811 64 114 10.0 12.0 0.00 0.00 0.00 44 1009.2
20211025192324 64 102 6.0 8.0 0.00 0.00 0.00 44 1009.2
20211025191338 64 112 8.0 12.0 0.00 0.00 0.00 43 1009.8
20211025185837 63 112 7.0 10.0 0.00 0.00 0.00 47 1010.2
20211025184838 64 102 9.0 13.0 0.00 0.00 0.00 43 1010.4
20211025184327 64 121 9.0 13.0 0.00 0.00 0.00 42 1010.2
20211025183816 64 134 8.0 14.0 0.00 0.00 0.00 42 1010.5
20211025183334 64 125 8.0 14.0 0.00 0.00 0.00 43 1010.5
20211025181824 63 118 12.0 18.0 0.00 0.00 0.00 42 1010.6
20211025181337 63 121 9.0 18.0 0.00 0.00 0.00 44 1010.7
20211025180315 62 132 11.0 14.0 0.00 0.00 0.00 45 1011.0
20211025172840 61 147 9.0 15.0 0.00 0.00 0.00 49 1011.8
20211025172339 61 151 10.0 15.0 0.00 0.00 0.00 48 1011.7
20211025170838 62 145 11.0 15.0 0.00 0.00 0.00 45 1012.1
20211025170325 61 139 9.0 17.0 0.00 0.00 0.00 46 1012.0
20211025164843 60 136 13.0 20.0 0.00 0.00 0.00 47 1012.0
20211025163844 59 133 8.0 13.0 0.00 0.00 0.00 52 1012.3
20211025163337 59 154 6.0 10.0 0.00 0.00 0.00 53 1012.4
20211025161816 60 135 11.0 14.0 0.00 0.00 0.00 48 1013.0
20211025161328 60 131 10.0 14.0 0.00 0.00 0.00 48 1012.7
20211025155816 60 141 11.0 17.0 0.00 0.00 0.00 49 1013.0
20211025155346 60 145 9.0 16.0 0.00 0.00 0.00 48 1013.1
20211025154347 60 125 9.0 13.0 0.00 0.00 0.00 49 1013.0
20211025153339 60 113 11.0 17.0 0.00 0.00 0.00 51 1012.5
20211025151837 59 88 6.0 16.0 0.00 0.00 0.00 53 1013.0
20211025150822 59 83 8.0 16.0 0.00 0.00 0.00 55 1012.7
20211025150339 59 97 9.0 16.0 0.00 0.00 0.00 53 1012.8
20211025145817 59 109 11.0 14.0 0.00 0.00 0.00 54 1012.6
20211025144306 59 106 12.0 15.0 0.00 0.00 0.00 52 1012.9
20211025143803 59 104 9.0 14.0 0.00 0.00 0.00 52 1013.2
20211025142348 59 105 11.0 18.0 0.00 0.00 0.00 50 1013.2
20211025141807 59 108 13.0 18.0 0.00 0.00 0.00 50 1012.6
20211025141303 59 103 12.0 16.0 0.00 0.00 0.00 50 1013.0
20211025140309 59 108 9.0 14.0 0.00 0.00 0.00 51 1013.3
20211025135843 59 116 10.0 14.0 0.00 0.00 0.00 50 1012.9
20211025135310 59 116 10.0 15.0 0.00 0.00 0.00 50 1013.1
20211025134806 60 122 10.0 16.0 0.00 0.00 0.00 50 1013.2
20211025133843 60 118 10.0 14.0 0.00 0.00 0.00 50 1013.2
20211025132311 60 132 11.0 19.0 0.00 0.00 0.00 49 1013.6
20211025131832 60 135 15.0 19.0 0.00 0.00 0.00 50 1013.7
20211025131306 59 121 11.0 15.0 0.00 0.00 0.00 51 1013.5
20211025130807 59 127 10.0 13.0 0.00 0.00 0.00 52 1013.9
20211025124824 58 112 10.0 16.0 0.00 0.00 0.00 54 1014.2
20211025124327 58 96 12.0 16.0 0.00 0.00 0.00 54 1014.1
20211025123846 58 106 9.0 13.0 0.00 0.00 0.00 54 1014.5
20211025122822 59 91 8.0 14.0 0.00 0.00 0.00 54 1014.5
20211025120822 59 106 10.0 15.0 0.00 0.00 0.00 52 1014.8
20211025115835 59 102 8.0 16.0 0.00 0.00 0.00 53 1015.0
20211025115339 59 111 9.0 16.0 0.00 0.00 0.00 53 1014.8
20211025114826 59 105 9.0 15.0 0.00 0.00 0.00 55 1014.7
20211025114309 59 105 10.0 16.0 0.00 0.00 0.00 55 1014.5
20211025113823 59 105 10.0 16.0 0.00 0.00 0.00 55 1014.4
20211025111325 58 112 12.0 15.0 0.00 0.00 0.00 55 1014.7
20211025105829 58 99 10.0 13.0 0.00 0.00 0.00 56 1015.0
20211025104832 58 100 6.0 11.0 0.00 0.00 0.00 56 1015.3
20211025104322 58 88 6.0 10.0 0.00 0.00 0.00 56 1015.2
20211025103844 57 83 5.0 10.0 0.00 0.00 0.00 56 1015.5
20211025102815 57 90 6.0 10.0 0.00 0.00 0.00 56 1015.4
20211025101816 57 108 7.0 13.0 0.00 0.00 0.00 56 1015.7
20211025101317 58 92 5.0 13.0 0.00 0.00 0.00 56 1015.7
20211025100334 57 101 7.0 13.0 0.00 0.00 0.00 56 1016.1
20211025095329 57 101 9.0 13.0 0.00 0.00 0.00 57 1015.7
20211025093307 59 101 10.0 15.0 0.00 0.00 0.00 54 1015.5
20211025092821 59 105 10.0 15.0 0.00 0.00 0.00 53 1015.7
20211025092317 59 105 13.0 15.0 0.00 0.00 0.00 52 1015.7
20211025091328 60 104 12.0 17.0 0.00 0.00 0.00 51 1016.2
20211025090834 60 112 10.0 15.0 0.00 0.00 0.00 51 1016.4
20211025090318 60 114 9.0 15.0 0.00 0.00 0.00 51 1016.4
20211025085827 60 128 9.0 14.0 0.00 0.00 0.00 50 1016.3
20211025085333 60 125 9.0 14.0 0.00 0.00 0.00 50 1016.6
20211025084836 61 132 8.0 14.0 0.00 0.00 0.00 49 1016.6
20211025083833 60 124 8.0 12.0 0.00 0.00 0.00 51 1016.4
20211025081821 59 121 8.0 12.0 0.00 0.00 0.00 54 1016.9
20211025075306 58 129 9.0 11.0 0.00 0.00 0.00 55 1016.8
20211025074846 58 125 8.0 11.0 0.00 0.00 0.00 55 1017.0
20211025073319 58 143 8.0 12.0 0.00 0.00 0.00 56 1017.0
20211025071340 58 133 7.0 12.0 0.00 0.00 0.00 56 1017.4
20211025070843 58 139 8.0 12.0 0.00 0.00 0.00 56 1017.1
20211025065815 58 144 9.0 14.0 0.00 0.00 0.00 57 1017.2
20211025065342 58 142 8.0 14.0 0.00 0.00 0.00 58 1017.2
20211025063839 57 126 8.0 12.0 0.00 0.00 0.00 60 1017.4
20211025063322 57 129 6.0 9.0 0.00 0.00 0.00 60 1017.8
20211025062825 57 120 5.0 11.0 0.00 0.00 0.00 61 1017.6
20211025062343 57 128 8.0 11.0 0.00 0.00 0.00 61 1017.8
20211025060843 58 130 7.0 14.0 0.00 0.00 0.00 58 1017.8
20211025060333 57 129 9.0 14.0 0.00 0.00 0.00 60 1017.6
20211025055337 57 134 8.0 10.0 0.00 0.00 0.00 61 1017.8
20211025054818 57 129 6.0 10.0 0.00 0.00 0.00 61 1017.9
20211025052326 56 126 7.0 12.0 0.00 0.00 0.00 63 1017.9
20211025051809 56 114 9.0 12.0 0.00 0.00 0.00 64 1018.0
20211025051339 56 121 8.0 12.0 0.00 0.00 0.00 64 1018.0
20211025050846 56 130 8.0 11.0 0.00 0.00 0.00 65 1018.5
20211025050348 56 135 9.0 12.0 0.00 0.00 0.00 65 1018.1
20211025045811 56 120 8.0 13.0 0.00 0.00 0.00 65 1017.8
20211025045313 56 133 10.0 16.0 0.00 0.00 0.00 64 1017.7
20211025044314 57 128 10.0 12.0 0.00 0.00 0.00 64 1017.5
20211025043848 57 134 8.0 12.0 0.00 0.00 0.00 64 1017.5
20211025043345 56 132 9.0 12.0 0.00 0.00 0.00 64 1018.0
20211025042831 56 132 9.0 14.0 0.00 0.00 0.00 66 1017.9
20211025042331 56 132 9.0 14.0 0.00 0.00 0.00 66 1017.9
20211025041327 56 131 9.0 13.0 0.00 0.00 0.00 66 1018.0
20211025040815 57 127 8.0 13.0 0.00 0.00 0.00 64 1017.7
20211025035808 57 134 6.0 11.0 0.00 0.00 0.00 62 1018.0
20211025034805 57 116 8.0 12.0 0.00 0.00 0.00 62 1017.4
20211025033332 58 127 9.0 12.0 0.00 0.00 0.00 61 1017.6
20211025031846 58 128 10.0 15.0 0.00 0.00 0.00 61 1017.7
20211025031326 58 147 9.0 14.0 0.00 0.00 0.00 61 1017.4
20211025025807 58 137 10.0 14.0 0.00 0.00 0.00 63 1017.4
20211025025319 58 131 11.0 14.0 0.00 0.00 0.00 63 1017.4
20211025024831 57 145 10.0 15.0 0.00 0.00 0.00 63 1017.7
20211025023844 57 140 9.0 16.0 0.00 0.00 0.00 63 1017.5
20211025022327 58 116 8.0 10.0 0.00 0.00 0.00 60 1017.5
20211025021842 58 130 7.0 11.0 0.00 0.00 0.00 59 1017.5
20211025020343 58 134 8.0 11.0 0.00 0.00 0.00 60 1017.0
20211025015820 58 154 8.0 12.0 0.00 0.00 0.00 60 1017.4
20211025014838 58 148 8.0 12.0 0.00 0.00 0.00 60 1017.3
20211025012332 58 142 7.0 10.0 0.00 0.00 0.00 60 1017.0
20211025011842 58 137 8.0 11.0 0.00 0.00 0.00 59 1017.1
20211025010806 57 144 7.0 11.0 0.00 0.00 0.00 61 1017.0
20211025005308 57 144 4.0 6.0 0.00 0.00 0.00 65 1017.4
20211025004812 57 142 5.0 6.0 0.00 0.00 0.00 65 1017.2
20211025004335 57 151 4.0 7.0 0.00 0.00 0.00 65 1017.3
20211025003810 57 150 5.0 7.0 0.00 0.00 0.00 65 1017.4
20211025000325 57 165 4.0 6.0 0.00 0.00 0.00 67 1017.6
20211024234840 57 158 4.0 6.0 0.00 0.00 0.00 67 1017.3
20211024233802 57 143 5.0 8.0 0.00 0.00 0.00 66 1017.5
20211024232320 56 117 6.0 11.0 0.00 0.00 0.00 66 1017.7
20211024230818 57 165 8.0 11.0 0.00 0.00 0.00 67 1019.1
20211024225336 56 137 5.0 10.0 0.00 0.00 0.00 67 1019.0
20211024224308 56 154 8.0 9.0 0.00 0.00 0.00 68 1018.8
20211024223340 56 130 4.0 6.0 0.00 0.00 0.00 69 1019.0